Time;durP1;ratioP1;P1;durP2;ratioP2;P2;SDS_P1;SDS_P2;PMS_P1;PMS_P2;Temp;Humidity;BMP_temperature;BMP_pressure;BME280_temperature;BME280_humidity;BME280_pressure;Samples;Min_cycle;Max_cycle;Signal;HPM_P1;HPM_P2
2021/12/28 00:01:51;;;;;;;20.58;5.95;;;;;;;18.70;51.05;99385.44;5047468;28;20041;-72
2021/12/28 00:04:16;;;;;;;23.60;6.53;;;;;;;18.67;51.66;99394.59;5030153;28;20076;-72
2021/12/28 00:06:42;;;;;;;18.17;5.70;;;;;;;18.67;51.48;99396.41;5030319;28;20038;-72
2021/12/28 00:09:08;;;;;;;20.88;6.35;;;;;;;18.69;51.50;99395.25;5029593;28;20045;-71
2021/12/28 00:11:34;;;;;;;21.63;5.88;;;;;;;18.69;51.45;99389.13;4996583;28;20041;-72
2021/12/28 00:14:01;;;;;;;16.77;6.03;;;;;;;18.64;51.25;99386.97;5029552;28;20644;-72
2021/12/28 00:16:31;;;;;;;17.60;5.68;;;;;;;18.63;51.24;99398.59;5029752;28;20068;-71
2021/12/28 00:18:57;;;;;;;19.25;5.70;;;;;;;18.63;51.15;99395.94;5029829;28;20041;-72
2021/12/28 00:21:23;;;;;;;18.83;5.78;;;;;;;18.61;51.10;99397.13;5029301;28;20041;-72
2021/12/28 00:23:49;;;;;;;17.27;5.65;;;;;;;18.59;51.19;99386.69;5012207;28;20405;-72
2021/12/28 00:26:15;;;;;;;21.95;6.45;;;;;;;18.65;50.64;99393.13;5029172;28;20073;-72
2021/12/28 00:28:42;;;;;;;20.15;5.85;;;;;;;18.61;51.37;99391.81;5029650;28;20472;-71
2021/12/28 00:31:08;;;;;;;21.02;6.20;;;;;;;18.59;50.90;99392.00;5011927;28;20038;-71
2021/12/28 00:33:33;;;;;;;15.38;5.88;;;;;;;18.58;51.43;99382.34;4997736;28;20084;-72
2021/12/28 00:35:59;;;;;;;17.40;6.05;;;;;;;18.57;51.28;99386.03;5012100;28;20095;-72
2021/12/28 00:38:25;;;;;;;18.27;5.57;;;;;;;18.55;51.00;99387.19;5028988;28;20095;-72
2021/12/28 00:40:53;;;;;;;14.45;5.10;;;;;;;18.58;51.34;99382.34;4995894;28;20116;-72
2021/12/28 00:43:19;;;;;;;21.10;5.85;;;;;;;18.59;51.16;99384.03;5011553;28;20045;-72
2021/12/28 00:45:44;;;;;;;17.25;5.40;;;;;;;18.55;51.24;99377.44;5029498;28;20053;-72
2021/12/28 00:48:10;;;;;;;15.35;5.25;;;;;;;18.57;51.03;99380.72;5011160;28;20041;-71
2021/12/28 00:50:35;;;;;;;16.60;5.38;;;;;;;18.56;50.57;99378.25;5011559;28;20066;-72
2021/12/28 00:53:01;;;;;;;14.10;5.03;;;;;;;18.53;50.72;99368.78;5011275;28;20148;-70
2021/12/28 00:55:26;;;;;;;16.02;5.00;;;;;;;18.52;50.75;99377.78;5011602;28;20041;-72
2021/12/28 00:57:52;;;;;;;14.70;5.40;;;;;;;18.51;51.16;99370.78;5011258;28;20482;-72
2021/12/28 01:00:22;;;;;;;12.55;4.35;;;;;;;18.53;51.00;99376.75;5028656;28;20517;-72
2021/12/28 01:02:48;;;;;;;13.70;4.85;;;;;;;18.51;50.66;99373.44;5040751;28;20053;-72
2021/12/28 01:05:14;;;;;;;13.23;4.38;;;;;;;18.48;50.59;99365.81;5048242;28;20068;-72
2021/12/28 01:07:39;;;;;;;15.70;4.50;;;;;;;18.52;50.60;99364.50;5014896;28;20139;-72
2021/12/28 01:10:06;;;;;;;12.15;4.43;;;;;;;18.54;50.97;99365.13;5030512;28;20064;-72
2021/12/28 01:12:32;;;;;;;11.93;4.45;;;;;;;18.49;50.91;99357.69;5030874;28;20037;-72
2021/12/28 01:14:57;;;;;;;18.30;4.63;;;;;;;18.51;50.29;99360.16;5031120;28;20140;-72
2021/12/28 01:17:23;;;;;;;14.52;4.45;;;;;;;18.46;50.58;99362.53;5048180;28;20382;-72
2021/12/28 01:19:48;;;;;;;16.63;4.70;;;;;;;18.47;50.67;99358.88;5048753;28;20470;-72
2021/12/28 01:22:14;;;;;;;12.77;4.38;;;;;;;18.46;50.59;99360.69;5030187;28;20044;-71
2021/12/28 01:24:39;;;;;;;12.00;4.45;;;;;;;18.46;50.90;99343.94;5047762;28;20083;-71
2021/12/28 01:27:04;;;;;;;14.27;4.93;;;;;;;18.43;50.71;99346.94;5047873;28;20052;-72
2021/12/28 01:29:30;;;;;;;13.35;4.18;;;;;;;18.45;50.66;99348.41;5030813;28;20052;-72
2021/12/28 01:31:55;;;;;;;12.60;4.35;;;;;;;18.43;50.40;99344.31;5047669;28;20173;-72
2021/12/28 01:34:21;;;;;;;12.30;4.13;;;;;;;18.45;50.57;99344.94;5029799;28;20144;-71
2021/12/28 01:36:46;;;;;;;10.57;4.13;;;;;;;18.44;50.56;99354.72;5048082;28;20072;-72
2021/12/28 01:39:12;;;;;;;12.63;4.03;;;;;;;18.41;50.43;99349.75;5030166;28;20068;-71
2021/12/28 01:41:37;;;;;;;13.10;3.88;;;;;;;18.42;50.64;99342.63;5014374;28;20059;-72
2021/12/28 01:44:07;;;;;;;10.75;3.80;;;;;;;18.38;50.18;99350.13;5018800;28;20730;-72
2021/12/28 01:46:33;;;;;;;13.10;3.90;;;;;;;18.38;50.10;99362.56;4991545;28;20383;-72
2021/12/28 01:48:59;;;;;;;11.82;3.92;;;;;;;18.35;50.95;99344.31;5023943;28;20104;-72
2021/12/28 01:51:24;;;;;;;13.23;4.03;;;;;;;18.34;50.58;99353.31;5008227;28;20042;-72
2021/12/28 01:53:52;;;;;;;10.23;3.55;;;;;;;18.33;50.35;99360.41;5023641;28;20087;-72
2021/12/28 01:56:22;;;;;;;11.85;4.10;;;;;;;18.33;50.66;99359.59;5007859;28;20560;-72
2021/12/28 01:58:48;;;;;;;14.07;3.65;;;;;;;18.30;50.17;99357.28;5023869;28;20034;-72
2021/12/28 02:01:14;;;;;;;10.95;3.47;;;;;;;18.30;50.39;99365.25;4992134;28;20042;-72
2021/12/28 02:03:40;;;;;;;13.23;4.38;;;;;;;18.27;50.53;99354.00;5028134;28;20037;-72
2021/12/28 02:06:05;;;;;;;10.85;3.35;;;;;;;18.30;50.08;99365.25;5027571;28;20122;-71
2021/12/28 02:08:31;;;;;;;10.07;3.72;;;;;;;18.29;50.55;99355.63;4993852;28;20132;-73
2021/12/28 02:10:56;;;;;;;11.85;3.78;;;;;;;18.30;50.44;99358.13;4993827;28;20048;-72
2021/12/28 02:13:22;;;;;;;12.65;4.13;;;;;;;18.26;50.50;99351.50;5043272;28;20103;-72
2021/12/28 02:15:48;;;;;;;10.25;3.28;;;;;;;18.29;50.24;99353.00;5013614;28;20041;-72
2021/12/28 02:18:15;;;;;;;10.48;3.83;;;;;;;18.23;50.30;99347.34;5038462;28;20081;-71
2021/12/28 02:20:40;;;;;;;10.32;3.40;;;;;;;18.23;50.48;99344.72;5010220;28;20045;-71
2021/12/28 02:23:06;;;;;;;10.50;3.50;;;;;;;18.23;50.47;99336.75;5027454;28;20532;-71
2021/12/28 02:25:32;;;;;;;8.30;3.15;;;;;;;18.24;50.36;99338.41;5026555;28;20041;-72
2021/12/28 02:27:58;;;;;;;8.10;2.90;;;;;;;18.23;50.42;99342.06;5028008;28;20045;-72
2021/12/28 02:30:24;;;;;;;10.35;3.10;;;;;;;18.21;50.04;99332.63;5027616;28;20449;-72
2021/12/28 02:32:49;;;;;;;10.82;3.17;;;;;;;18.20;50.41;99336.25;5011140;28;20498;-72
2021/12/28 02:35:18;;;;;;;10.40;3.70;;;;;;;18.17;50.31;99337.44;5025291;28;20041;-72
2021/12/28 02:37:43;;;;;;;10.32;3.15;;;;;;;18.17;50.57;99337.44;5006373;28;20052;-71
2021/12/28 02:40:11;;;;;;;8.27;3.03;;;;;;;18.17;49.93;99331.31;5031171;28;20046;-72
2021/12/28 02:42:36;;;;;;;9.63;2.88;;;;;;;18.16;50.34;99329.66;5014239;28;20121;-72
2021/12/28 02:45:09;;;;;;;8.88;3.20;;;;;;;18.17;50.23;99329.47;5031185;28;20045;-71
2021/12/28 02:47:36;;;;;;;10.05;2.92;;;;;;;18.15;50.21;99323.53;5014410;28;20131;-72
2021/12/28 02:50:01;;;;;;;10.50;3.53;;;;;;;18.12;50.10;99323.88;4997114;28;20068;-70
2021/12/28 02:52:26;;;;;;;8.55;2.83;;;;;;;18.11;50.31;99322.19;5014246;28;20813;-72
2021/12/28 02:54:52;;;;;;;11.40;2.92;;;;;;;18.12;50.17;99312.44;5031592;28;20410;-72
2021/12/28 02:57:17;;;;;;;6.32;2.40;;;;;;;18.12;50.23;99317.75;5031012;28;20582;-72
2021/12/28 02:59:49;;;;;;;8.75;2.95;;;;;;;18.12;49.92;99325.72;5031731;28;20115;-72
2021/12/28 03:02:15;;;;;;;7.70;2.60;;;;;;;18.11;50.43;99316.91;5023793;28;20186;-72
2021/12/28 03:04:41;;;;;;;8.90;3.20;;;;;;;18.09;50.22;99313.59;5024158;28;20071;-72
2021/12/28 03:07:06;;;;;;;8.75;2.92;;;;;;;18.09;50.02;99307.47;5049706;28;20056;-71
2021/12/28 03:09:32;;;;;;;9.60;2.75;;;;;;;18.09;50.04;99299.53;5049861;28;20059;-72
2021/12/28 03:11:57;;;;;;;10.70;2.65;;;;;;;18.04;50.04;99305.31;5049576;28;20075;-72
2021/12/28 03:14:23;;;;;;;7.78;2.42;;;;;;;18.04;50.22;99306.16;5050638;28;20049;-72
2021/12/28 03:16:48;;;;;;;13.63;3.05;;;;;;;18.01;50.27;99290.56;5051123;28;20045;-72
2021/12/28 03:19:13;;;;;;;10.35;3.00;;;;;;;18.05;50.05;99291.09;5035502;28;20045;-71
2021/12/28 03:21:40;;;;;;;9.90;3.08;;;;;;;18.05;49.93;99296.38;5033047;28;20576;-72
2021/12/28 03:24:06;;;;;;;8.75;2.67;;;;;;;18.02;50.30;99291.44;5016073;28;20084;-70
2021/12/28 03:26:31;;;;;;;10.20;2.70;;;;;;;18.04;50.22;99286.75;5032965;28;20033;-72
2021/12/28 03:28:57;;;;;;;8.85;2.50;;;;;;;18.03;49.90;99288.59;5032987;28;20037;-72
2021/12/28 03:31:22;;;;;;;7.75;2.42;;;;;;;18.05;50.04;99288.44;5049185;28;22274;-72
2021/12/28 03:33:49;;;;;;;9.63;2.33;;;;;;;18.04;50.29;99286.75;5032260;28;20056;-72
2021/12/28 03:36:15;;;;;;;7.32;2.40;;;;;;;18.02;49.86;99284.28;5032460;28;20037;-71
2021/12/28 03:38:42;;;;;;;8.25;2.50;;;;;;;18.01;49.95;99276.50;5016687;28;20056;-72
2021/12/28 03:41:08;;;;;;;10.55;2.60;;;;;;;17.99;50.06;99265.25;5050144;28;20033;-71
2021/12/28 03:43:37;;;;;;;8.30;2.42;;;;;;;18.01;50.17;99263.22;5050575;28;20059;-72
2021/12/28 03:46:03;;;;;;;8.45;2.50;;;;;;;17.97;50.19;99259.28;5050023;28;20463;-71
2021/12/28 03:48:28;;;;;;;8.68;2.40;;;;;;;17.98;50.28;99261.72;5015418;28;20037;-72
2021/12/28 03:50:54;;;;;;;9.30;2.38;;;;;;;17.99;49.93;99259.94;5032657;28;20072;-72
2021/12/28 03:53:19;;;;;;;7.85;2.33;;;;;;;17.97;49.89;99246.81;5049851;28;20033;-72
2021/12/28 03:55:44;;;;;;;7.30;2.53;;;;;;;17.99;50.02;99251.97;5032432;28;20065;-72
2021/12/28 03:58:10;;;;;;;7.95;2.50;;;;;;;17.95;50.13;99240.03;5031954;28;20497;-72
2021/12/28 04:00:40;;;;;;;9.20;2.35;;;;;;;17.97;49.80;99236.22;5050164;28;20040;-72
2021/12/28 04:03:06;;;;;;;8.00;2.42;;;;;;;17.95;49.86;99237.38;5049271;28;20036;-71
2021/12/28 04:05:31;;;;;;;8.65;2.75;;;;;;;17.94;49.84;99243.69;5049692;28;20748;-72
2021/12/28 04:07:57;;;;;;;10.05;2.33;;;;;;;17.92;50.03;99235.06;5050062;28;20040;-72
2021/12/28 04:10:30;;;;;;;7.90;2.42;;;;;;;17.90;50.09;99234.44;5031643;28;20444;-72
2021/12/28 04:12:56;;;;;;;6.95;2.30;;;;;;;17.92;50.30;99237.72;5018033;28;20033;-72
2021/12/28 04:15:21;;;;;;;9.43;2.90;;;;;;;17.91;50.20;99236.91;5049467;28;20977;-72
2021/12/28 04:17:47;;;;;;;11.80;2.60;;;;;;;17.90;50.03;99235.25;5049991;28;20467;-72
2021/12/28 04:20:15;;;;;;;7.90;2.20;;;;;;;17.90;49.94;99227.31;5049614;28;20084;-72
2021/12/28 04:22:41;;;;;;;8.20;2.22;;;;;;;17.90;50.22;99223.84;5015922;28;20049;-72
2021/12/28 04:25:06;;;;;;;8.70;2.35;;;;;;;17.88;50.01;99231.13;5049609;28;20153;-71
2021/12/28 04:27:32;;;;;;;7.05;1.95;;;;;;;17.87;49.58;99224.19;5031887;28;20078;-72
2021/12/28 04:29:57;;;;;;;8.75;2.28;;;;;;;17.85;50.19;99223.50;5015467;28;20045;-72
2021/12/28 04:32:23;;;;;;;8.93;2.15;;;;;;;17.86;49.82;99223.31;5043367;28;20492;-71
2021/12/28 04:34:48;;;;;;;6.50;2.00;;;;;;;17.83;49.95;99217.53;5031631;28;20051;-72
2021/12/28 04:37:14;;;;;;;7.03;1.98;;;;;;;17.83;49.90;99212.25;5048904;28;20424;-71
2021/12/28 04:39:39;;;;;;;9.60;2.10;;;;;;;17.85;49.89;99216.38;5015058;28;20045;-72
2021/12/28 04:42:05;;;;;;;5.30;1.80;;;;;;;17.85;49.86;99215.56;5030999;28;20124;-71
2021/12/28 04:44:31;;;;;;;8.25;2.10;;;;;;;17.83;49.84;99204.28;5031434;28;20611;-72
2021/12/28 04:46:56;;;;;;;7.85;2.00;;;;;;;17.83;49.99;99209.59;5049261;28;20048;-72
2021/12/28 04:49:24;;;;;;;9.13;2.30;;;;;;;17.83;50.06;99212.25;5031055;28;20054;-72
2021/12/28 04:51:50;;;;;;;7.88;2.03;;;;;;;17.82;50.07;99210.59;5031856;28;20040;-72
2021/12/28 04:54:16;;;;;;;7.05;2.00;;;;;;;17.79;49.95;99209.13;5030732;28;20120;-72
2021/12/28 04:56:41;;;;;;;5.20;1.83;;;;;;;17.80;50.00;99198.34;5014967;28;20060;-72
2021/12/28 04:59:06;;;;;;;8.13;2.25;;;;;;;17.78;49.99;99210.13;5047921;28;20041;-71
2021/12/28 05:01:33;;;;;;;8.25;1.90;;;;;;;17.77;49.95;99206.66;5048378;28;20045;-72
2021/12/28 05:03:58;;;;;;;9.13;2.22;;;;;;;17.77;50.08;99201.34;5014921;28;20098;-72
2021/12/28 05:06:24;;;;;;;8.75;2.33;;;;;;;17.77;50.28;99204.00;5048391;28;20073;-72
2021/12/28 05:08:49;;;;;;;8.43;2.00;;;;;;;17.76;50.11;99183.72;5049059;28;20041;-72
2021/12/28 05:11:14;;;;;;;7.10;2.00;;;;;;;17.74;50.08;99171.66;5048379;28;20044;-71
2021/12/28 05:13:41;;;;;;;8.73;1.88;;;;;;;17.75;50.10;99168.00;5048988;28;20473;-72
2021/12/28 05:16:06;;;;;;;6.03;2.05;;;;;;;17.75;50.07;99173.31;5030257;28;20087;-71
2021/12/28 05:18:32;;;;;;;9.70;2.22;;;;;;;17.73;50.26;99173.47;5031083;28;20064;-72
2021/12/28 05:20:57;;;;;;;8.50;2.10;;;;;;;17.70;50.16;99160.56;5030863;28;20517;-72
2021/12/28 05:23:23;;;;;;;7.72;2.20;;;;;;;17.72;50.04;99158.56;5048332;28;20037;-72
2021/12/28 05:25:48;;;;;;;9.00;2.28;;;;;;;17.76;50.01;99159.84;5048781;28;20056;-72
2021/12/28 05:28:14;;;;;;;7.93;1.90;;;;;;;17.81;50.03;99159.38;5048304;28;20049;-71
2021/12/28 05:30:39;;;;;;;8.43;2.10;;;;;;;17.87;49.83;99152.56;5030308;28;20064;-72
2021/12/28 05:33:05;;;;;;;6.03;1.95;;;;;;;17.92;49.71;99163.44;5048030;28;20037;-71
2021/12/28 05:35:30;;;;;;;7.40;1.90;;;;;;;17.97;49.58;99155.81;5030769;28;20037;-72
2021/12/28 05:37:55;;;;;;;6.88;1.92;;;;;;;18.02;49.92;99153.44;5048516;28;20036;-71
2021/12/28 05:40:21;;;;;;;7.32;1.95;;;;;;;18.07;50.02;99148.41;5048014;28;20430;-72
2021/12/28 05:42:46;;;;;;;6.05;1.83;;;;;;;18.14;50.04;99152.00;5030763;28;20049;-72
2021/12/28 05:45:12;;;;;;;7.40;2.28;;;;;;;18.21;49.60;99142.34;5013467;28;20049;-72
2021/12/28 05:47:38;;;;;;;6.78;1.90;;;;;;;18.32;49.18;99137.63;5014028;28;20378;-71
2021/12/28 05:50:05;;;;;;;4.75;1.58;;;;;;;18.43;48.81;99138.03;5047936;28;20421;-71
2021/12/28 05:52:31;;;;;;;5.80;1.80;;;;;;;18.53;49.03;99129.81;5048146;28;20567;-72
2021/12/28 05:54:56;;;;;;;5.70;1.60;;;;;;;18.60;49.01;99125.41;5030395;28;20045;-72
2021/12/28 05:57:21;;;;;;;7.68;1.70;;;;;;;18.66;48.62;99122.03;5047831;28;20665;-72
2021/12/28 05:59:47;;;;;;;4.47;1.40;;;;;;;18.70;48.22;99114.53;5048167;28;20505;-72
2021/12/28 06:02:12;;;;;;;4.45;1.50;;;;;;;18.69;48.24;99108.38;5047191;28;20520;-72
2021/12/28 06:04:38;;;;;;;6.38;1.50;;;;;;;18.76;48.34;99113.00;5029859;28;20099;-72
2021/12/28 06:07:03;;;;;;;4.78;1.38;;;;;;;18.79;48.73;99105.50;5047582;28;20045;-72
2021/12/28 06:09:29;;;;;;;5.15;1.45;;;;;;;18.79;48.00;99102.00;4993749;28;20049;-70
2021/12/28 06:11:54;;;;;;;5.07;1.38;;;;;;;18.83;48.18;99109.41;5023006;28;20044;-71
2021/12/28 06:14:20;;;;;;;4.70;1.52;;;;;;;18.88;48.18;99108.88;5010284;28;20053;-72
2021/12/28 06:16:45;;;;;;;6.03;1.60;;;;;;;18.90;47.60;99107.69;5010253;28;20055;-72
2021/12/28 06:19:11;;;;;;;5.63;1.40;;;;;;;18.91;47.50;99108.53;5021669;28;20065;-72
2021/12/28 06:21:36;;;;;;;5.35;1.60;;;;;;;18.94;47.69;99108.16;5010585;28;20061;-65
2021/12/28 06:24:02;;;;;;;6.45;1.70;;;;;;;18.94;48.10;99103.66;5034739;28;20519;-66
2021/12/28 06:26:28;;;;;;;5.25;1.48;;;;;;;18.93;48.80;99103.84;5032185;28;20054;-70
2021/12/28 06:28:54;;;;;;;6.68;1.52;;;;;;;18.95;47.81;99107.13;5012094;28;20052;-72
2021/12/28 06:31:19;;;;;;;6.80;1.40;;;;;;;18.99;48.18;99103.13;5027415;28;20065;-72
2021/12/28 06:33:48;;;;;;;6.70;1.77;;;;;;;19.02;48.06;99097.44;5016132;28;20061;-72
2021/12/28 06:36:13;;;;;;;7.78;1.70;;;;;;;19.05;48.03;99088.25;5017556;28;20132;-72
2021/12/28 06:38:39;;;;;;;6.60;1.60;;;;;;;19.05;47.54;99086.41;5014933;28;20328;-72
2021/12/28 06:41:06;;;;;;;6.55;1.67;;;;;;;19.08;48.32;99072.75;5036269;28;20433;-72
2021/12/28 06:43:31;;;;;;;7.47;1.65;;;;;;;19.09;48.57;99074.41;5028235;28;20107;-72
2021/12/28 06:45:57;;;;;;;6.60;1.45;;;;;;;19.14;48.10;99081.81;5035904;28;20444;-72
2021/12/28 06:48:22;;;;;;;5.47;1.38;;;;;;;19.14;48.06;99085.31;5039993;28;20080;-72
2021/12/28 06:50:49;;;;;;;6.05;1.45;;;;;;;19.15;48.01;99081.66;5039295;28;20040;-72
2021/12/28 06:53:14;;;;;;;3.53;1.15;;;;;;;19.18;48.30;99077.81;5009514;28;20394;-71
2021/12/28 06:55:40;;;;;;;4.63;1.35;;;;;;;19.21;48.97;99077.44;5009771;28;20029;-72
2021/12/28 06:58:05;;;;;;;4.60;1.33;;;;;;;19.24;48.61;99076.22;5028745;28;20078;-71
2021/12/28 07:00:31;;;;;;;6.53;1.33;;;;;;;19.25;47.83;99072.56;5035857;28;20465;-72
2021/12/28 07:02:56;;;;;;;5.00;1.33;;;;;;;19.26;47.97;99075.03;5026882;28;20125;-72
2021/12/28 07:05:22;;;;;;;4.75;1.20;;;;;;;19.27;48.29;99073.19;5034103;28;20635;-72
2021/12/28 07:07:47;;;;;;;5.75;1.20;;;;;;;19.28;48.29;99066.88;4997290;28;20060;-72
2021/12/28 07:10:13;;;;;;;4.10;1.25;;;;;;;19.30;48.18;99063.00;5013315;28;20045;-71
2021/12/28 07:12:38;;;;;;;5.10;1.08;;;;;;;19.32;48.00;99066.31;5024027;28;20084;-72
2021/12/28 07:15:04;;;;;;;6.13;1.30;;;;;;;19.33;48.40;99064.47;5041006;28;20080;-71
2021/12/28 07:17:30;;;;;;;6.18;1.30;;;;;;;19.32;48.54;99052.19;5039014;28;20041;-71
2021/12/28 07:19:55;;;;;;;5.65;1.33;;;;;;;19.33;48.64;99059.16;5032538;28;20049;-72
2021/12/28 07:22:21;;;;;;;4.43;1.20;;;;;;;19.32;48.69;99060.97;5035660;28;20064;-72
2021/12/28 07:24:46;;;;;;;4.00;1.10;;;;;;;19.34;48.54;99066.13;5031142;28;20088;-72
2021/12/28 07:27:12;;;;;;;6.13;1.20;;;;;;;19.34;48.72;99060.81;5041397;28;20489;-72
2021/12/28 07:29:37;;;;;;;3.53;1.20;;;;;;;19.36;48.34;99064.91;5013057;28;20065;-72
2021/12/28 07:32:04;;;;;;;5.72;1.30;;;;;;;19.31;48.78;99058.53;5017230;28;20345;-67
2021/12/28 07:34:31;;;;;;;7.20;1.27;;;;;;;19.27;48.68;99043.94;5030636;28;20049;-68
2021/12/28 07:36:56;;;;;;;4.07;1.15;;;;;;;19.24;48.69;99039.00;5021505;28;20132;-68
2021/12/28 07:39:22;;;;;;;5.90;1.20;;;;;;;19.25;49.55;99041.47;4996134;28;20106;-72
2021/12/28 07:41:47;;;;;;;2.97;1.10;;;;;;;19.28;49.01;99042.94;5025043;28;20132;-72
2021/12/28 07:44:12;;;;;;;6.68;1.10;;;;;;;19.31;48.92;99042.56;5020406;28;20048;-71
2021/12/28 07:46:38;;;;;;;5.47;1.17;;;;;;;19.30;47.82;99040.91;5043726;28;20045;-71
2021/12/28 07:49:03;;;;;;;4.78;1.20;;;;;;;19.33;48.24;99041.34;5027529;28;20129;-73
2021/12/28 07:51:29;;;;;;;4.85;1.13;;;;;;;19.34;47.93;99039.53;5014761;28;20030;-72
2021/12/28 07:53:54;;;;;;;8.90;1.20;;;;;;;19.36;47.83;99030.34;5019369;28;20456;-69
2021/12/28 07:56:20;;;;;;;4.82;1.30;;;;;;;19.25;49.50;99027.38;5044112;28;20472;-69
2021/12/28 07:58:46;;;;;;;7.53;1.70;;;;;;;19.28;48.50;99032.31;5039752;28;20044;-71
2021/12/28 08:01:11;;;;;;;10.23;1.40;;;;;;;19.27;49.05;99030.66;5018882;28;20037;-69
2021/12/28 08:03:37;;;;;;;4.55;1.13;;;;;;;19.27;49.09;99028.81;5032220;28;20063;-69
2021/12/28 08:06:02;;;;;;;6.78;1.65;;;;;;;19.30;49.17;99030.28;5018986;28;20063;-69
2021/12/28 08:08:27;;;;;;;6.00;1.60;;;;;;;19.24;48.95;99023.91;5000484;28;20567;-69
2021/12/28 08:10:53;;;;;;;7.60;1.80;;;;;;;19.27;49.36;99018.16;5039244;28;20095;-68
2021/12/28 08:13:18;;;;;;;6.55;1.63;;;;;;;19.25;49.02;99017.56;5028268;28;20045;-68
2021/12/28 08:15:44;;;;;;;8.50;1.65;;;;;;;19.24;50.15;99017.72;5034437;28;20061;-68
2021/12/28 08:18:10;;;;;;;8.48;1.50;;;;;;;19.26;49.28;99019.19;5013466;28;20040;-68
2021/12/28 08:20:36;;;;;;;5.25;1.40;;;;;;;19.28;49.71;99019.03;5017528;28;20447;-69
2021/12/28 08:23:02;;;;;;;7.15;1.80;;;;;;;19.28;49.73;99008.38;5028995;28;20049;-68
2021/12/28 08:25:27;;;;;;;7.40;1.85;;;;;;;19.31;49.87;99016.00;5012035;28;20048;-70
2021/12/28 08:27:57;;;;;;;5.10;1.90;;;;;;;19.29;49.80;99008.19;5031380;28;20500;-68
2021/12/28 08:30:22;;;;;;;5.55;1.80;;;;;;;19.27;49.92;99007.53;5036584;28;20093;-68
2021/12/28 08:32:48;;;;;;;8.05;1.80;;;;;;;19.26;50.15;99005.09;5015060;28;20045;-68
2021/12/28 08:35:14;;;;;;;6.57;1.88;;;;;;;19.25;51.08;99000.78;5037891;28;20367;-68
2021/12/28 08:37:39;;;;;;;5.70;1.85;;;;;;;19.24;50.82;99002.63;4987384;28;20130;-69
2021/12/28 08:40:06;;;;;;;6.15;2.00;;;;;;;19.24;50.65;98999.13;5017712;28;20033;-72
2021/12/28 08:42:31;;;;;;;6.72;1.88;;;;;;;19.31;51.12;98997.38;5041363;28;20037;-67
2021/12/28 08:44:57;;;;;;;6.57;1.67;;;;;;;19.28;49.76;98995.09;5030242;28;20478;-67
2021/12/28 08:47:26;;;;;;;8.20;1.90;;;;;;;19.30;50.68;98990.41;5017942;28;20037;-68
2021/12/28 08:49:55;;;;;;;6.23;1.60;;;;;;;19.29;51.07;98988.75;5042072;28;20034;-68
2021/12/28 08:52:21;;;;;;;5.97;1.75;;;;;;;19.29;51.04;98994.06;5015038;28;20444;-67
2021/12/28 08:54:46;;;;;;;5.72;1.90;;;;;;;19.26;51.64;98981.97;5025505;28;20042;-74
2021/12/28 08:57:12;;;;;;;3.92;1.40;;;;;;;19.27;51.05;98988.13;5019812;28;20343;-73
2021/12/28 08:59:38;;;;;;;4.78;1.50;;;;;;;19.32;50.75;98977.75;5036687;28;20037;-73
2021/12/28 09:02:03;;;;;;;5.50;1.83;;;;;;;19.36;50.62;98973.69;5039234;28;20057;-72
2021/12/28 09:04:28;;;;;;;4.45;1.23;;;;;;;19.38;49.88;98972.50;5030129;28;20489;-74
2021/12/28 09:06:54;;;;;;;6.47;1.42;;;;;;;19.39;50.02;98971.47;5011796;28;20057;-73
2021/12/28 09:09:19;;;;;;;8.13;1.58;;;;;;;19.39;50.74;98975.97;5028100;28;20046;-72
2021/12/28 09:11:45;;;;;;;11.07;1.50;;;;;;;19.45;49.87;98975.22;5014821;28;20032;-72
2021/12/28 09:14:10;;;;;;;4.60;1.40;;;;;;;19.45;50.89;98964.56;5037005;28;20044;-74
2021/12/28 09:16:36;;;;;;;4.43;1.40;;;;;;;19.47;49.75;98954.59;5024955;28;20136;-75
2021/12/28 09:19:01;;;;;;;8.13;1.40;;;;;;;19.50;49.86;98966.69;5037939;28;20063;-71
2021/12/28 09:21:27;;;;;;;5.68;1.50;;;;;;;19.50;50.05;98958.69;5027525;28;20040;-70
2021/12/28 09:23:52;;;;;;;4.93;1.38;;;;;;;19.50;50.07;98961.34;5011044;28;20170;-72
2021/12/28 09:26:18;;;;;;;5.20;1.50;;;;;;;19.51;49.43;98957.69;5029898;28;20559;-75
2021/12/28 09:28:43;;;;;;;3.78;1.30;;;;;;;19.50;50.11;98959.50;5032821;28;20041;-74
2021/12/28 09:31:09;;;;;;;3.22;1.20;;;;;;;19.50;51.43;98956.03;4974650;28;20755;-72
2021/12/28 09:33:34;;;;;;;5.80;1.35;;;;;;;19.51;49.75;98955.00;5025848;28;20037;-73
2021/12/28 09:36:05;;;;;;;5.93;1.40;;;;;;;19.49;50.21;98952.56;5041974;28;20116;-73
2021/12/28 09:38:30;;;;;;;4.70;1.15;;;;;;;19.51;51.37;98947.03;5007014;28;20521;-73
2021/12/28 09:40:56;;;;;;;4.68;1.40;;;;;;;19.51;50.47;98941.72;5023925;28;20075;-73
2021/12/28 09:43:21;;;;;;;2.95;1.27;;;;;;;19.50;51.91;98934.75;5029590;28;20080;-73
2021/12/28 09:45:47;;;;;;;3.70;1.23;;;;;;;19.50;50.67;98935.59;5046916;28;20049;-71
2021/12/28 09:48:12;;;;;;;4.13;1.30;;;;;;;19.51;52.33;98937.22;5026010;28;20124;-66
2021/12/28 09:50:40;;;;;;;6.40;1.60;;;;;;;19.53;51.74;98927.22;4999454;28;20037;-69
2021/12/28 09:53:05;;;;;;;5.38;1.45;;;;;;;19.50;52.89;98926.78;5021785;28;20040;-72
2021/12/28 09:55:31;;;;;;;6.47;1.50;;;;;;;19.44;53.22;98924.91;5048039;28;20041;-72
2021/12/28 09:57:57;;;;;;;5.45;1.20;;;;;;;19.39;53.40;98918.28;5048119;28;20124;-72
2021/12/28 10:00:22;;;;;;;7.53;1.80;;;;;;;19.37;53.83;98924.84;5029761;28;20068;-72
2021/12/28 10:02:48;;;;;;;6.25;1.50;;;;;;;19.33;53.22;98919.06;5047982;28;20072;-72
2021/12/28 10:05:17;;;;;;;3.63;1.10;;;;;;;19.31;54.07;98917.63;5029759;28;20100;-72
2021/12/28 10:07:56;;;;;;;5.32;1.52;;;;;;;19.30;54.17;98914.13;5030463;28;20069;-72
2021/12/28 10:10:29;;;;;;;10.57;1.92;;;;;;;19.27;54.25;98903.03;5015141;28;20106;-72
2021/12/28 10:12:57;;;;;;;3.30;1.45;;;;;;;19.23;53.04;98897.28;5030157;28;20095;-72
2021/12/28 10:15:24;;;;;;;4.38;1.38;;;;;;;19.24;53.23;98892.78;5039502;28;20052;-72
2021/12/28 10:17:52;;;;;;;3.08;1.10;;;;;;;19.21;53.85;98888.72;5033704;28;20124;-72
2021/12/28 10:20:32;;;;;;;5.00;1.30;;;;;;;19.17;53.27;98884.75;5029559;28;20060;-72
2021/12/28 10:23:02;;;;;;;3.43;1.47;;;;;;;19.15;53.68;98871.69;5047996;28;20068;-73
2021/12/28 10:25:36;;;;;;;3.63;1.40;;;;;;;19.23;53.00;98877.88;5009274;28;20041;-73
2021/12/28 10:28:04;;;;;;;2.92;1.35;;;;;;;19.26;54.04;98870.34;5029576;28;20037;-71
2021/12/28 10:30:36;;;;;;;3.95;1.10;;;;;;;19.23;54.23;98872.56;5030033;28;20049;-72
2021/12/28 10:33:03;;;;;;;4.38;1.20;;;;;;;19.24;54.31;98866.22;5012657;28;20025;-70
2021/12/28 10:35:35;;;;;;;3.08;1.25;;;;;;;19.16;54.00;98864.53;5009231;28;20046;-71
2021/12/28 10:38:05;;;;;;;2.97;1.10;;;;;;;19.14;54.38;98861.22;5026967;28;20494;-70
2021/12/28 10:40:42;;;;;;;4.35;1.10;;;;;;;19.10;54.92;98855.47;5041380;28;20033;-72
2021/12/28 10:43:10;;;;;;;6.10;1.50;;;;;;;19.09;54.41;98851.19;5049411;28;20040;-72
2021/12/28 10:45:40;;;;;;;4.93;1.20;;;;;;;19.08;54.45;98848.69;5058885;28;20091;-71
2021/12/28 10:48:26;;;;;;;5.60;1.20;;;;;;;19.06;53.89;98843.59;5035759;28;20493;-71
2021/12/28 10:50:59;;;;;;;3.40;1.10;;;;;;;19.06;54.32;98837.47;5036693;28;20033;-72
2021/12/28 10:53:33;;;;;;;3.45;1.52;;;;;;;19.04;53.57;98834.97;5009453;28;20037;-72
2021/12/28 10:55:59;;;;;;;4.32;1.20;;;;;;;19.03;54.06;98821.91;5027487;28;20041;-72
2021/12/28 10:58:31;;;;;;;2.90;1.13;;;;;;;19.01;54.27;98826.56;5030182;28;20072;-72
2021/12/28 11:01:10;;;;;;;3.75;1.00;;;;;;;19.00;53.60;98828.41;4994127;28;20448;-72
2021/12/28 11:03:36;;;;;;;3.83;1.40;;;;;;;18.98;53.43;98821.63;5024681;28;20071;-72
2021/12/28 11:06:27;;;;;;;3.42;0.90;;;;;;;18.98;53.45;98822.44;5050096;28;20037;-71
2021/12/28 11:08:53;;;;;;;;;;;;;;;18.94;54.21;98815.88;5021482;28;20584;-72
2021/12/28 11:11:20;;;;;;;4.45;1.00;;;;;;;18.97;53.96;98810.19;5050652;28;19982;-72
2021/12/28 11:13:46;;;;;;;2.70;0.98;;;;;;;18.97;53.75;98815.50;5033023;28;20135;-72
2021/12/28 11:16:12;;;;;;;3.80;1.35;;;;;;;18.97;54.57;98806.72;5032184;28;20481;-71
2021/12/28 11:18:42;;;;;;;1.77;0.82;;;;;;;18.97;54.51;98807.53;5049871;28;20060;-72
2021/12/28 11:21:21;;;;;;;;;;;;;;;18.95;53.85;98817.53;5024519;28;20045;-71
2021/12/28 11:23:51;;;;;;;3.10;0.85;;;;;;;18.96;54.09;98803.25;5031105;28;19925;-72
2021/12/28 11:26:23;;;;;;;2.13;0.97;;;;;;;18.97;54.34;98804.06;5011160;28;20095;-72
2021/12/28 11:29:06;;;;;;;2.25;0.93;;;;;;;18.94;54.34;98802.59;5030749;28;20037;-72